Time,TemperatureF,DewpointF,PressureIn,WindDirection,WindDirectionDegrees,WindSpeedMPH,WindSpeedGustMPH,Humidity,HourlyPrecipIn,Conditions,Clouds,dailyrainin,SoftwareType,DateUTC
2013-03-27 00:00:00,50.0,47.2,29.80,West,270,2.7,-999.0,90,-99.99,,,0.00,Acu-Link.com,2013-03-27 07:00:00,
2013-03-27 00:15:00,49.8,47.0,29.81,ESE,112,0.0,-999.0,90,-99.99,,,0.00,Acu-Link.com,2013-03-27 07:15:00,
2013-03-27 00:31:00,49.5,47.3,29.81,North,0,0.0,-999.0,92,-99.99,,,0.00,Acu-Link.com,2013-03-27 07:31:00,
2013-03-27 01:01:00,50.2,47.7,29.81,East,90,0.0,-999.0,91,-99.99,,,0.00,Acu-Link.com,2013-03-27 08:01:00,
2013-03-27 01:16:00,50.2,48.0,29.80,West,270,2.7,-999.0,92,-99.99,,,0.00,Acu-Link.com,2013-03-27 08:16:00,
2013-03-27 01:31:00,50.2,48.0,29.80,NW,315,4.2,-999.0,92,-99.99,,,0.00,Acu-Link.com,2013-03-27 08:31:00,
2013-03-27 01:46:00,50.2,48.0,29.81,NNE,22,0.0,-999.0,92,-99.99,,,0.00,Acu-Link.com,2013-03-27 08:46:00,
2013-03-27 02:02:00,49.5,47.6,29.80,North,0,0.0,-999.0,93,-99.99,,,0.00,Acu-Link.com,2013-03-27 09:02:00,
2013-03-27 02:17:00,48.9,46.7,29.80,ESE,112,0.0,-999.0,92,-99.99,,,0.00,Acu-Link.com,2013-03-27 09:17:00,
2013-03-27 02:32:00,48.4,47.3,29.79,NNE,22,0.0,-999.0,96,-99.99,,,0.00,Acu-Link.com,2013-03-27 09:32:00,
2013-03-27 02:48:00,48.6,47.8,29.79,ESE,112,0.0,-999.0,97,-99.99,,,0.00,Acu-Link.com,2013-03-27 09:48:00,
2013-03-27 03:03:00,48.6,47.8,29.79,NW,315,0.0,-999.0,97,-99.99,,,0.00,Acu-Link.com,2013-03-27 10:03:00,
2013-03-27 03:18:00,48.6,47.8,29.78,NW,315,0.0,-999.0,97,-99.99,,,0.00,Acu-Link.com,2013-03-27 10:18:00,
2013-03-27 03:34:00,48.6,47.8,29.78,East,90,0.0,-999.0,97,-99.99,,,0.00,Acu-Link.com,2013-03-27 10:34:00,
2013-03-27 03:49:00,48.6,47.5,29.78,East,90,0.0,-999.0,96,-99.99,,,0.00,Acu-Link.com,2013-03-27 10:49:00,
2013-03-27 04:04:00,48.9,48.1,29.78,East,90,0.0,-999.0,97,-99.99,,,0.00,Acu-Link.com,2013-03-27 11:04:00,
2013-03-27 04:19:00,49.5,48.4,29.78,East,90,0.0,-999.0,96,-99.99,,,0.00,Acu-Link.com,2013-03-27 11:19:00,
2013-03-27 04:34:00,49.8,48.1,29.78,NW,315,0.0,-999.0,94,-99.99,,,0.00,Acu-Link.com,2013-03-27 11:34:00,
2013-03-27 04:50:00,50.2,48.0,29.78,ESE,112,0.0,-999.0,92,-99.99,,,0.00,Acu-Link.com,2013-03-27 11:50:00,
2013-03-27 05:05:00,50.7,47.9,29.78,ESE,112,0.0,-999.0,90,-99.99,,,0.00,Acu-Link.com,2013-03-27 12:05:00,
2013-03-27 05:20:00,50.9,47.5,29.78,ENE,67,0.0,-999.0,88,-99.99,,,0.00,Acu-Link.com,2013-03-27 12:20:00,
2013-03-27 05:36:00,51.1,47.4,29.78,West,270,0.0,-999.0,87,-99.99,,,0.00,Acu-Link.com,2013-03-27 12:36:00,
2013-03-27 06:06:00,51.4,47.4,29.78,NW,315,0.0,-999.0,86,-99.99,,,0.00,Acu-Link.com,2013-03-27 13:06:00,
2013-03-27 06:37:00,51.8,47.7,29.79,East,90,1.7,-999.0,86,-99.99,,,0.00,Acu-Link.com,2013-03-27 13:37:00,
2013-03-27 06:52:00,52.0,47.9,29.78,ESE,112,0.0,-999.0,86,-99.99,,,0.00,Acu-Link.com,2013-03-27 13:52:00,
2013-03-27 07:07:00,52.0,47.9,29.79,ESE,112,0.0,-999.0,86,-99.99,,,0.00,Acu-Link.com,2013-03-27 14:07:00,
2013-03-27 07:22:00,52.3,48.2,29.78,East,90,2.2,-999.0,86,-99.99,,,0.00,Acu-Link.com,2013-03-27 14:22:00,
2013-03-27 07:38:00,53.1,48.7,29.79,SW,225,2.2,-999.0,85,-99.99,,,0.00,Acu-Link.com,2013-03-27 14:38:00,
2013-03-27 07:53:00,53.6,48.9,29.79,East,90,4.2,-999.0,84,-99.99,,,0.00,Acu-Link.com,2013-03-27 14:53:00,
2013-03-27 08:09:00,54.0,49.3,29.79,ESE,112,3.7,-999.0,84,-99.99,,,0.00,Acu-Link.com,2013-03-27 15:09:00,
2013-03-27 08:24:00,54.5,49.8,29.80,SE,135,0.0,-999.0,84,-99.99,,,0.00,Acu-Link.com,2013-03-27 15:24:00,
2013-03-27 08:39:00,56.1,50.0,29.80,SE,135,2.2,-999.0,80,-99.99,,,0.00,Acu-Link.com,2013-03-27 15:39:00,
2013-03-27 08:55:00,58.3,50.4,29.80,North,0,0.0,-999.0,75,-99.99,,,0.00,Acu-Link.com,2013-03-27 15:55:00,
2013-03-27 09:10:00,62.1,51.0,29.80,ESE,112,1.1,-999.0,67,-99.99,,,0.00,Acu-Link.com,2013-03-27 16:10:00,
2013-03-27 09:25:00,59.0,50.0,29.80,South,180,2.2,-999.0,72,-99.99,,,0.00,Acu-Link.com,2013-03-27 16:25:00,
2013-03-27 09:56:00,59.2,50.5,29.81,NW,315,2.7,-999.0,73,-99.99,,,0.00,Acu-Link.com,2013-03-27 16:56:00,
2013-03-27 10:11:00,59.7,51.0,29.81,ESE,112,2.2,-999.0,73,-99.99,,,0.00,Acu-Link.com,2013-03-27 17:11:00,
2013-03-27 10:27:00,59.7,50.7,29.81,NNE,22,1.7,-999.0,72,-99.99,,,0.00,Acu-Link.com,2013-03-27 17:27:00,
2013-03-27 10:42:00,59.4,50.4,29.81,SE,135,2.2,-999.0,72,-99.99,,,0.00,Acu-Link.com,2013-03-27 17:42:00,
2013-03-27 10:58:00,59.2,50.9,29.81,ENE,67,4.7,-999.0,74,-99.99,,,0.00,Acu-Link.com,2013-03-27 17:58:00,
2013-03-27 11:13:00,59.2,50.9,29.81,West,270,2.7,-999.0,74,-99.99,,,0.00,Acu-Link.com,2013-03-27 18:13:00,
2013-03-27 11:28:00,59.5,51.2,29.81,SW,225,0.0,-999.0,74,-99.99,,,0.00,Acu-Link.com,2013-03-27 18:28:00,
2013-03-27 11:43:00,60.3,51.2,29.82,NNW,337,2.2,-999.0,72,-99.99,,,0.00,Acu-Link.com,2013-03-27 18:43:00,
2013-03-27 11:59:00,61.3,51.8,29.81,North,0,1.7,-999.0,71,-99.99,,,0.00,Acu-Link.com,2013-03-27 18:59:00,
2013-03-27 12:14:00,61.5,52.4,29.82,NNW,337,3.7,-999.0,72,-99.99,,,0.00,Acu-Link.com,2013-03-27 19:14:00,
2013-03-27 12:29:00,63.0,53.1,29.81,WNW,292,5.8,-999.0,70,-99.99,,,0.00,Acu-Link.com,2013-03-27 19:29:00,
2013-03-27 12:45:00,61.7,53.0,29.82,West,270,6.3,-999.0,73,-99.99,,,0.00,Acu-Link.com,2013-03-27 19:45:00,
2013-03-27 13:00:00,61.3,52.9,29.81,NW,315,4.7,-999.0,74,-99.99,,,0.00,Acu-Link.com,2013-03-27 20:00:00,
2013-03-27 13:15:00,62.6,53.1,29.81,West,270,4.2,-999.0,71,-99.99,,,0.00,Acu-Link.com,2013-03-27 20:15:00,
2013-03-27 13:30:00,62.4,53.3,29.81,NNE,22,6.3,-999.0,72,-99.99,,,0.00,Acu-Link.com,2013-03-27 20:30:00,
2013-03-27 13:45:00,61.2,53.6,29.81,West,270,2.7,-999.0,76,-99.99,,,0.00,Acu-Link.com,2013-03-27 20:45:00,
2013-03-27 14:00:00,61.9,53.9,29.81,NNW,337,4.7,-999.0,75,-99.99,,,0.00,Acu-Link.com,2013-03-27 21:00:00,
2013-03-27 14:16:00,61.9,53.9,29.81,NNW,337,2.7,-999.0,75,-99.99,,,0.00,Acu-Link.com,2013-03-27 21:16:00,
2013-03-27 14:31:00,62.1,54.1,29.81,SSW,202,5.3,-999.0,75,-99.99,,,0.00,Acu-Link.com,2013-03-27 21:31:00,
2013-03-27 15:01:00,59.2,53.7,29.81,West,270,3.7,-999.0,82,-99.99,,,0.00,Acu-Link.com,2013-03-27 22:01:00,
2013-03-27 15:17:00,59.0,53.5,29.81,NNW,337,3.2,-999.0,82,-99.99,,,0.00,Acu-Link.com,2013-03-27 22:17:00,
2013-03-27 15:32:00,59.2,53.4,29.81,West,270,3.2,-999.0,81,-99.99,,,0.00,Acu-Link.com,2013-03-27 22:32:00,
2013-03-27 15:47:00,59.2,53.0,29.81,NW,315,6.8,-999.0,80,-99.99,,,0.00,Acu-Link.com,2013-03-27 22:47:00,
2013-03-27 16:02:00,58.8,53.3,29.81,West,270,6.3,-999.0,82,-99.99,,,0.00,Acu-Link.com,2013-03-27 23:02:00,
2013-03-27 16:18:00,58.6,53.1,29.81,West,270,4.7,-999.0,82,-99.99,,,0.00,Acu-Link.com,2013-03-27 23:18:00,
2013-03-27 16:33:00,58.8,53.0,29.81,WSW,247,5.3,-999.0,81,-99.99,,,0.00,Acu-Link.com,2013-03-27 23:33:00,
2013-03-27 16:48:00,58.6,53.1,29.81,North,0,1.7,-999.0,82,-99.99,,,0.00,Acu-Link.com,2013-03-27 23:48:00,
2013-03-27 17:04:00,58.6,53.5,29.80,NE,45,2.7,-999.0,83,-99.99,,,0.00,Acu-Link.com,2013-03-28 00:04:00,
2013-03-27 17:19:00,59.2,53.4,29.81,ESE,112,4.7,-999.0,81,-99.99,,,0.00,Acu-Link.com,2013-03-28 00:19:00,
2013-03-27 17:34:00,59.5,53.3,29.80,NNW,337,2.2,-999.0,80,-99.99,,,0.00,Acu-Link.com,2013-03-28 00:34:00,
2013-03-27 17:50:00,58.8,53.3,29.80,NNW,337,3.2,-999.0,82,-99.99,,,0.00,Acu-Link.com,2013-03-28 00:50:00,
2013-03-27 18:05:00,58.6,53.5,29.80,WSW,247,5.8,-999.0,83,-99.99,,,0.00,Acu-Link.com,2013-03-28 01:05:00,
2013-03-27 18:20:00,57.7,53.2,29.80,West,270,6.8,-999.0,85,-99.99,,,0.00,Acu-Link.com,2013-03-28 01:20:00,
2013-03-27 18:35:00,57.0,53.2,29.80,East,90,5.3,-999.0,87,-99.99,,,0.00,Acu-Link.com,2013-03-28 01:35:00,
2013-03-27 18:50:00,57.0,53.2,29.80,NE,45,4.2,-999.0,87,-99.99,,,0.00,Acu-Link.com,2013-03-28 01:50:00,
2013-03-27 19:21:00,56.1,52.9,29.81,NW,315,2.7,-999.0,89,-99.99,,,0.00,Acu-Link.com,2013-03-28 02:21:00,
2013-03-27 19:52:00,55.4,52.8,29.81,WNW,292,3.7,-999.0,91,-99.99,,,0.00,Acu-Link.com,2013-03-28 02:52:00,
2013-03-27 20:07:00,55.2,52.9,29.82,West,270,1.1,-999.0,92,-99.99,,,0.00,Acu-Link.com,2013-03-28 03:07:00,
2013-03-27 20:22:00,55.0,53.0,29.82,NNW,337,1.7,-999.0,93,-99.99,,,0.00,Acu-Link.com,2013-03-28 03:22:00,
2013-03-27 20:37:00,55.0,53.3,29.82,SE,135,3.2,-999.0,94,-99.99,,,0.00,Acu-Link.com,2013-03-28 03:37:00,
2013-03-27 20:53:00,55.0,53.3,29.82,WNW,292,2.7,-999.0,94,-99.99,,,0.00,Acu-Link.com,2013-03-28 03:53:00,
2013-03-27 21:08:00,55.0,53.0,29.83,NNW,337,1.7,-999.0,93,-99.99,,,0.00,Acu-Link.com,2013-03-28 04:08:00,
2013-03-27 21:23:00,55.0,53.0,29.84,WNW,292,3.7,-999.0,93,-99.99,,,0.00,Acu-Link.com,2013-03-28 04:23:00,
2013-03-27 21:38:00,55.0,53.0,29.83,NNW,337,4.2,-999.0,93,-99.99,,,0.00,Acu-Link.com,2013-03-28 04:38:00,
2013-03-27 21:53:00,55.0,53.0,29.83,WNW,292,2.7,-999.0,93,-99.99,,,0.00,Acu-Link.com,2013-03-28 04:53:00,
2013-03-27 22:09:00,54.9,52.9,29.84,NNW,337,2.7,-999.0,93,-99.99,,,0.00,Acu-Link.com,2013-03-28 05:09:00,
2013-03-27 22:24:00,54.9,52.9,29.84,North,0,0.0,-999.0,93,-99.99,,,0.00,Acu-Link.com,2013-03-28 05:24:00,
2013-03-27 22:39:00,54.9,52.9,29.84,West,270,0.0,-999.0,93,-99.99,,,0.00,Acu-Link.com,2013-03-28 05:39:00,
2013-03-27 22:55:00,54.9,52.9,29.85,NNW,337,1.1,-999.0,93,-99.99,,,0.00,Acu-Link.com,2013-03-28 05:55:00,
2013-03-27 23:10:00,54.9,52.9,29.85,North,0,3.7,-999.0,93,-99.99,,,0.00,Acu-Link.com,2013-03-28 06:10:00,
2013-03-27 23:25:00,54.9,52.9,29.84,WNW,292,0.0,-999.0,93,-99.99,,,0.00,Acu-Link.com,2013-03-28 06:25:00,
2013-03-27 23:41:00,54.9,52.9,29.84,NW,315,4.2,-999.0,93,-99.99,,,0.00,Acu-Link.com,2013-03-28 06:41:00,